Time;durP1;ratioP1;P1;durP2;ratioP2;P2;SDS_P1;SDS_P2;PMS_P1;PMS_P2;Temp;Humidity;BMP_temperature;BMP_pressure;BME280_temperature;BME280_humidity;BME280_pressure;Samples;Min_cycle;Max_cycle;Signal;HPM_P1;HPM_P2
2022/07/27 00:00:30;;;;;;;9.88;8.88;;;;;;;25.89;58.30;97688.91;4992543;28;20559;-63
2022/07/27 00:02:56;;;;;;;9.95;9.05;;;;;;;25.80;59.13;97695.53;4992554;28;20210;-63
2022/07/27 00:05:21;;;;;;;9.93;8.50;;;;;;;25.80;59.24;97687.59;4992603;28;20236;-64
2022/07/27 00:07:47;;;;;;;10.25;9.35;;;;;;;25.70;59.84;97689.91;4992724;28;20237;-63
2022/07/27 00:10:13;;;;;;;9.70;8.82;;;;;;;25.58;59.77;97693.47;4992639;28;20194;-63
2022/07/27 00:12:39;;;;;;;9.32;8.40;;;;;;;25.40;59.84;97688.94;4975155;28;20258;-63
2022/07/27 00:15:06;;;;;;;9.88;8.95;;;;;;;25.32;60.16;97686.53;4992537;28;20712;-62
2022/07/27 00:17:31;;;;;;;11.15;8.68;;;;;;;25.38;59.73;97690.97;4992465;28;20183;-63
2022/07/27 00:19:57;;;;;;;8.88;8.07;;;;;;;25.30;59.96;97671.91;4992465;28;20229;-63
2022/07/27 00:22:22;;;;;;;10.10;8.60;;;;;;;25.36;60.64;97687.75;4992347;28;20199;-64
2022/07/27 00:24:48;;;;;;;10.30;8.80;;;;;;;25.29;60.92;97673.75;4992428;28;20171;-63
2022/07/27 00:27:14;;;;;;;12.25;8.70;;;;;;;25.21;61.16;97676.63;4995356;28;20178;-63
2022/07/27 00:29:40;;;;;;;10.05;8.93;;;;;;;25.25;60.90;97683.13;4996344;28;20648;-63
2022/07/27 00:32:06;;;;;;;9.27;8.38;;;;;;;25.26;60.53;97691.91;4996175;28;20187;-63
2022/07/27 00:34:31;;;;;;;9.48;8.38;;;;;;;25.20;60.37;97693.53;4996168;28;20581;-64
2022/07/27 00:36:57;;;;;;;8.93;8.13;;;;;;;25.19;60.82;97693.75;4996203;28;20625;-64
2022/07/27 00:39:22;;;;;;;11.02;8.80;;;;;;;25.26;59.57;97700.63;4996161;28;20234;-63
2022/07/27 00:41:48;;;;;;;9.70;8.73;;;;;;;25.15;59.71;97695.19;4996080;28;20175;-63
2022/07/27 00:44:32;;;;;;;9.50;8.68;;;;;;;25.14;58.77;97693.59;4996407;28;20179;-63
2022/07/27 00:46:58;;;;;;;10.63;8.77;;;;;;;25.19;58.91;97697.19;4996070;28;20238;-63
2022/07/27 00:49:25;;;;;;;10.32;8.98;;;;;;;25.22;59.33;97702.09;4994832;28;20636;-63
2022/07/27 00:51:51;;;;;;;9.77;8.88;;;;;;;25.21;60.03;97705.75;4995989;28;20618;-63
2022/07/27 00:54:18;;;;;;;10.80;9.32;;;;;;;25.14;60.80;97706.81;4994687;28;20182;-63
2022/07/27 00:56:43;;;;;;;9.95;8.95;;;;;;;25.07;60.97;97706.06;4995893;28;20175;-63
2022/07/27 00:59:10;;;;;;;9.43;8.48;;;;;;;25.08;60.62;97713.75;4995803;28;20180;-63
2022/07/27 01:01:36;;;;;;;10.38;9.45;;;;;;;24.96;60.91;97707.53;4995793;28;20175;-63
2022/07/27 01:04:01;;;;;;;11.18;8.93;;;;;;;24.84;61.88;97708.41;4995662;28;20684;-63
2022/07/27 01:06:27;;;;;;;9.60;8.80;;;;;;;24.87;61.64;97714.09;4994450;28;20182;-63
2022/07/27 01:11:47;;;;;;;10.75;9.00;;;;;;;24.66;62.17;97706.47;4976708;28;20683;-63
2022/07/27 01:14:14;;;;;;;10.93;9.13;;;;;;;24.63;62.23;97712.19;4994819;28;20182;-64
2022/07/27 01:16:40;;;;;;;9.63;8.73;;;;;;;24.65;62.81;97718.06;4995717;28;20233;-63
2022/07/27 01:19:08;;;;;;;10.07;9.18;;;;;;;24.50;63.57;97714.81;4994966;28;20187;-62
2022/07/27 01:21:34;;;;;;;9.98;8.95;;;;;;;24.51;63.11;97716.47;4995601;28;20210;-63
2022/07/27 01:24:00;;;;;;;10.45;9.45;;;;;;;24.49;63.61;97707.13;4995273;28;20230;-64
2022/07/27 01:26:25;;;;;;;10.10;9.18;;;;;;;24.46;63.75;97711.00;4995311;28;20636;-64
2022/07/27 01:28:56;;;;;;;9.50;8.60;;;;;;;24.48;63.66;97708.94;4995814;28;20182;-64
2022/07/27 01:31:21;;;;;;;10.02;9.13;;;;;;;24.45;64.11;97703.25;4995708;28;20205;-62
2022/07/27 01:33:47;;;;;;;10.63;8.48;;;;;;;24.36;64.46;97694.75;4993899;28;20223;-64
2022/07/27 01:36:12;;;;;;;9.32;8.32;;;;;;;24.32;63.96;97703.31;4994904;28;20175;-63
2022/07/27 01:38:37;;;;;;;10.10;9.20;;;;;;;24.32;64.30;97703.31;4995040;28;20175;-63
2022/07/27 01:41:03;;;;;;;10.57;8.82;;;;;;;24.34;64.52;97701.25;4995082;28;20612;-62
2022/07/27 01:43:28;;;;;;;10.25;9.15;;;;;;;24.35;64.88;97692.28;4994955;28;20200;-63
2022/07/27 01:45:54;;;;;;;10.35;9.30;;;;;;;24.35;64.77;97703.69;4994987;28;20175;-63
2022/07/27 01:48:20;;;;;;;9.95;9.13;;;;;;;24.30;64.92;97706.16;4994868;28;20182;-63
2022/07/27 01:50:46;;;;;;;9.68;8.70;;;;;;;24.18;64.62;97694.59;4995066;28;20179;-62
2022/07/27 01:53:12;;;;;;;10.57;8.65;;;;;;;24.25;64.09;97711.25;4994853;28;20189;-63
2022/07/27 01:55:37;;;;;;;10.00;9.10;;;;;;;24.18;65.16;97718.38;4995020;28;20640;-63
2022/07/27 01:58:05;;;;;;;10.10;9.07;;;;;;;24.13;65.45;97715.56;4994739;28;20185;-64
2022/07/27 02:00:32;;;;;;;10.52;9.38;;;;;;;24.13;65.32;97703.34;4994706;28;20183;-63
2022/07/27 02:02:57;;;;;;;9.32;8.43;;;;;;;24.10;64.89;97705.38;4993377;28;20203;-64
2022/07/27 02:05:23;;;;;;;10.02;9.13;;;;;;;24.12;65.02;97715.75;4994641;28;20644;-63
2022/07/27 02:07:49;;;;;;;10.27;9.38;;;;;;;24.08;65.03;97711.09;4994779;28;20187;-64
2022/07/27 02:10:14;;;;;;;9.90;8.90;;;;;;;24.08;65.33;97704.78;4994590;28;20637;-64
2022/07/27 02:12:39;;;;;;;11.32;9.68;;;;;;;24.10;65.20;97704.59;4993194;28;20636;-66
2022/07/27 02:15:09;;;;;;;10.70;8.95;;;;;;;24.04;65.14;97711.50;4994433;28;20175;-64
2022/07/27 02:17:36;;;;;;;9.55;8.57;;;;;;;24.03;65.00;97715.16;4994433;28;20186;-63
2022/07/27 02:20:03;;;;;;;9.93;9.02;;;;;;;24.08;65.04;97716.38;4994582;28;20562;-65
2022/07/27 02:22:29;;;;;;;9.88;8.88;;;;;;;24.06;65.28;97713.94;4994248;28;20249;-64
2022/07/27 02:24:54;;;;;;;10.23;9.00;;;;;;;24.04;65.22;97715.97;4994192;28;20258;-69
2022/07/27 02:27:20;;;;;;;10.93;8.82;;;;;;;23.96;65.98;97710.09;4994174;28;20233;-64
2022/07/27 02:29:45;;;;;;;10.35;9.38;;;;;;;23.69;66.08;97680.22;4994396;28;20194;-64
2022/07/27 02:32:11;;;;;;;9.75;8.70;;;;;;;23.83;66.21;97706.41;4993895;28;20187;-62
2022/07/27 02:34:36;;;;;;;9.70;8.85;;;;;;;23.89;66.45;97717.22;4994283;28;20190;-62
2022/07/27 02:37:01;;;;;;;9.57;8.65;;;;;;;23.94;65.55;97712.94;4994461;28;20182;-63
2022/07/27 02:39:27;;;;;;;9.57;8.45;;;;;;;23.96;66.16;97708.25;4993982;28;20611;-64
2022/07/27 02:41:52;;;;;;;13.05;9.02;;;;;;;23.96;66.44;97713.53;4994079;28;20677;-63
2022/07/27 02:44:19;;;;;;;10.15;9.20;;;;;;;23.91;66.35;97694.03;4994105;28;20179;-62
2022/07/27 02:46:44;;;;;;;9.73;8.82;;;;;;;23.98;66.38;97715.97;4993779;28;20179;-63
2022/07/27 02:49:10;;;;;;;10.10;9.20;;;;;;;23.84;66.69;97705.41;4993213;28;20206;-63
2022/07/27 02:51:35;;;;;;;9.15;8.35;;;;;;;23.78;67.43;97718.59;4993731;28;20182;-63
2022/07/27 02:54:01;;;;;;;9.68;8.85;;;;;;;23.76;68.01;97718.00;4993682;28;20266;-63
2022/07/27 02:56:27;;;;;;;11.82;9.25;;;;;;;23.73;67.96;97709.69;4993889;28;20175;-62
2022/07/27 02:58:53;;;;;;;10.30;9.40;;;;;;;23.73;67.92;97711.28;5009371;28;20186;-62
2022/07/27 03:01:18;;;;;;;11.95;10.30;;;;;;;23.69;69.65;97717.19;5008711;28;20194;-62
2022/07/27 03:03:43;;;;;;;10.40;9.40;;;;;;;23.75;68.65;97721.66;4993721;28;20298;-63
2022/07/27 03:06:10;;;;;;;10.55;9.38;;;;;;;23.68;67.41;97708.44;4993497;28;20179;-62
2022/07/27 03:08:36;;;;;;;9.60;8.57;;;;;;;23.79;67.82;97723.69;4993693;28;20179;-63
2022/07/27 03:11:01;;;;;;;9.80;9.00;;;;;;;23.71;67.13;97715.16;4992071;28;20716;-63
2022/07/27 03:13:27;;;;;;;10.65;9.65;;;;;;;23.71;67.90;97724.94;4993462;28;20335;-63
2022/07/27 03:15:54;;;;;;;10.90;8.90;;;;;;;23.63;69.61;97722.47;4993306;28;20179;-63
2022/07/27 03:18:20;;;;;;;9.85;8.85;;;;;;;23.63;69.15;97725.13;4992292;28;20183;-63
2022/07/27 03:20:45;;;;;;;10.30;9.05;;;;;;;23.55;71.73;97730.63;4993175;28;20225;-63
2022/07/27 03:23:11;;;;;;;11.93;10.48;;;;;;;23.48;73.35;97725.31;4993091;28;20202;-64
2022/07/27 03:25:36;;;;;;;11.52;10.43;;;;;;;23.49;70.85;97731.41;4993117;28;20179;-64
2022/07/27 03:28:02;;;;;;;13.75;11.25;;;;;;;23.62;72.32;97741.97;4993108;28;20636;-64
2022/07/27 03:30:27;;;;;;;14.05;10.48;;;;;;;23.61;73.50;97745.66;4993121;28;20215;-63
2022/07/27 03:32:53;;;;;;;11.55;10.30;;;;;;;23.47;74.54;97721.06;4992815;28;20762;-63
2022/07/27 03:35:18;;;;;;;12.20;10.95;;;;;;;23.48;76.01;97746.44;4992994;28;20254;-64
2022/07/27 03:37:44;;;;;;;14.10;11.30;;;;;;;23.47;76.74;97744.00;4993203;28;20666;-62
2022/07/27 03:40:10;;;;;;;12.15;10.95;;;;;;;23.63;76.50;97762.09;4993043;28;20171;-64
2022/07/27 03:42:37;;;;;;;11.55;10.43;;;;;;;23.68;75.74;97753.38;4992853;28;20199;-65
2022/07/27 03:45:04;;;;;;;10.18;9.20;;;;;;;23.91;70.88;97754.81;4992812;28;20616;-63
2022/07/27 03:47:29;;;;;;;11.85;9.80;;;;;;;23.79;71.36;97755.41;4993041;28;20589;-63
2022/07/27 03:49:55;;;;;;;11.35;10.20;;;;;;;23.97;70.66;97754.84;4992733;28;20179;-64
2022/07/27 03:52:20;;;;;;;11.77;10.63;;;;;;;24.02;74.34;97755.81;4992996;28;20270;-63
2022/07/27 03:54:46;;;;;;;12.00;10.40;;;;;;;24.14;73.57;97753.38;4991499;28;20294;-64
2022/07/27 03:57:12;;;;;;;13.05;11.82;;;;;;;24.33;72.24;97763.09;4992958;28;20186;-63
2022/07/27 03:59:38;;;;;;;14.98;11.35;;;;;;;24.39;72.44;97770.22;4992471;28;20187;-63
2022/07/27 04:02:04;;;;;;;13.95;11.98;;;;;;;24.48;72.43;97767.13;4993365;28;20182;-64
2022/07/27 04:04:29;;;;;;;14.50;12.20;;;;;;;24.65;71.09;97768.34;4992627;28;20182;-63
2022/07/27 04:06:55;;;;;;;14.65;11.18;;;;;;;24.86;70.81;97776.00;4992624;28;20183;-63
2022/07/27 04:09:21;;;;;;;16.13;10.95;;;;;;;25.01;70.50;97773.88;4991448;28;20178;-62
2022/07/27 04:11:46;;;;;;;16.67;11.77;;;;;;;25.16;69.27;97777.09;4992537;28;20184;-63
2022/07/27 04:14:13;;;;;;;13.23;11.82;;;;;;;25.30;67.76;97788.47;4992562;28;20240;-63
2022/07/27 04:16:39;;;;;;;15.32;12.05;;;;;;;25.34;67.68;97794.94;4992803;28;20179;-64
2022/07/27 04:19:05;;;;;;;14.27;11.88;;;;;;;25.33;67.50;97786.19;4992500;28;20278;-64
2022/07/27 04:21:30;;;;;;;13.95;12.52;;;;;;;25.40;68.03;97789.59;4992750;28;20649;-64
2022/07/27 04:23:56;;;;;;;24.13;12.88;;;;;;;25.46;66.76;97799.34;4991199;28;20277;-62
2022/07/27 04:26:22;;;;;;;12.45;11.10;;;;;;;25.42;66.65;97784.91;4992446;28;20241;-63
2022/07/27 04:28:47;;;;;;;11.10;10.18;;;;;;;25.51;64.82;97794.22;4991121;28;20175;-63
2022/07/27 04:31:13;;;;;;;10.13;9.15;;;;;;;25.55;63.31;97798.06;4991129;28;20270;-62
2022/07/27 04:33:38;;;;;;;12.90;9.70;;;;;;;25.54;62.83;97795.63;4992138;28;20258;-62
2022/07/27 04:36:07;;;;;;;10.90;9.77;;;;;;;25.52;62.03;97784.44;4992572;28;20602;-62
2022/07/27 04:38:33;;;;;;;11.10;9.75;;;;;;;25.60;62.62;97784.19;4992096;28;20617;-62
2022/07/27 04:40:58;;;;;;;11.10;9.98;;;;;;;25.62;61.56;97782.13;4992297;28;20234;-64
2022/07/27 04:43:24;;;;;;;10.38;8.98;;;;;;;25.47;62.32;97790.38;4990967;28;20282;-63
2022/07/27 04:45:49;;;;;;;10.57;9.68;;;;;;;25.43;62.34;97793.66;4992282;28;20209;-62
2022/07/27 04:48:14;;;;;;;10.93;9.82;;;;;;;25.59;62.08;97799.25;4992237;28;20203;-62
2022/07/27 04:50:45;;;;;;;10.93;9.82;;;;;;;25.54;61.65;97800.94;4992303;28;20178;-63
2022/07/27 04:53:12;;;;;;;11.25;10.25;;;;;;;25.56;61.84;97820.06;4992505;28;20253;-63
2022/07/27 04:55:42;;;;;;;13.65;11.15;;;;;;;25.66;62.86;97820.44;4992197;28;20202;-64
2022/07/27 04:58:08;;;;;;;20.92;13.50;;;;;;;25.76;63.75;97818.09;4992354;28;20171;-63
2022/07/27 05:00:33;;;;;;;29.33;15.52;;;;;;;25.90;64.29;97828.41;4992124;28;20176;-64
2022/07/27 05:02:58;;;;;;;33.08;15.07;;;;;;;25.95;64.40;97820.63;4992064;28;20202;-64
2022/07/27 05:05:24;;;;;;;26.90;14.75;;;;;;;26.02;64.90;97834.66;4992644;28;20175;-63
2022/07/27 05:07:49;;;;;;;17.85;13.95;;;;;;;26.05;64.90;97834.22;4990865;28;20167;-63
2022/07/27 05:10:15;;;;;;;21.73;14.25;;;;;;;26.01;63.82;97825.06;4990922;28;20228;-63
2022/07/27 05:12:40;;;;;;;20.77;14.20;;;;;;;26.08;64.57;97823.22;4993791;28;20209;-63
2022/07/27 05:15:06;;;;;;;20.05;14.75;;;;;;;26.23;64.27;97830.84;4995403;28;20171;-63
2022/07/27 05:17:33;;;;;;;20.40;13.52;;;;;;;26.36;63.46;97823.53;4995555;28;20166;-62
2022/07/27 05:19:58;;;;;;;18.55;12.40;;;;;;;26.30;61.99;97783.84;4994247;28;20180;-63
2022/07/27 05:22:24;;;;;;;23.27;14.65;;;;;;;26.56;62.36;97818.91;4994048;28;20702;-62
2022/07/27 05:24:49;;;;;;;18.67;13.02;;;;;;;26.65;62.33;97822.09;4995353;28;20172;-63
2022/07/27 05:27:15;;;;;;;24.30;13.75;;;;;;;26.62;61.15;97822.50;4995361;28;20258;-62
2022/07/27 05:29:40;;;;;;;15.35;12.57;;;;;;;26.72;61.10;97823.66;4995314;28;20175;-63
2022/07/27 05:32:06;;;;;;;19.02;13.10;;;;;;;26.89;59.30;97829.16;4995229;28;20223;-62
2022/07/27 05:34:31;;;;;;;14.65;12.88;;;;;;;26.95;59.36;97834.38;4995093;28;20195;-62
2022/07/27 05:36:56;;;;;;;18.40;12.95;;;;;;;27.07;58.98;97837.13;4995173;28;20167;-63
2022/07/27 05:39:22;;;;;;;20.15;12.82;;;;;;;27.12;58.57;97834.63;4995139;28;20703;-62
2022/07/27 05:41:47;;;;;;;21.90;13.80;;;;;;;27.19;58.62;97846.00;4995234;28;20234;-63
2022/07/27 05:44:13;;;;;;;17.73;13.77;;;;;;;27.29;57.58;97852.41;4995064;28;20195;-62
2022/07/27 05:46:38;;;;;;;15.73;13.15;;;;;;;27.39;56.44;97841.22;4994938;28;20181;-63
2022/07/27 05:49:04;;;;;;;16.10;12.80;;;;;;;27.49;55.86;97855.63;4993686;28;20237;-63
2022/07/27 05:51:30;;;;;;;16.23;13.57;;;;;;;27.60;55.94;97859.38;4994960;28;20224;-63
2022/07/27 05:53:56;;;;;;;16.80;13.70;;;;;;;27.65;56.48;97854.97;4994204;28;20175;-63
2022/07/27 05:56:22;;;;;;;21.83;13.05;;;;;;;27.70;56.15;97849.78;4994035;28;20250;-62
2022/07/27 05:58:48;;;;;;;20.65;12.35;;;;;;;27.81;55.43;97857.03;4994750;28;20194;-62
2022/07/27 06:01:13;;;;;;;19.42;14.23;;;;;;;27.83;55.92;97849.66;4994985;28;20207;-63
2022/07/27 06:03:38;;;;;;;20.80;13.45;;;;;;;27.89;56.74;97854.06;4993555;28;20207;-64
2022/07/27 06:08:48;;;;;;;21.90;14.13;;;;;;;27.69;57.14;97845.53;4994073;28;20202;-63
2022/07/27 06:11:13;;;;;;;35.53;14.63;;;;;;;27.78;57.29;97849.53;4994752;28;20250;-63
2022/07/27 06:13:39;;;;;;;20.42;14.02;;;;;;;27.90;57.28;97852.19;4994755;28;20274;-63
2022/07/27 06:16:05;;;;;;;17.52;13.18;;;;;;;27.99;56.36;97848.97;4994628;28;20225;-63
2022/07/27 06:18:30;;;;;;;24.48;14.02;;;;;;;28.06;56.51;97848.88;5009525;28;20182;-64
2022/07/27 06:20:56;;;;;;;18.35;13.20;;;;;;;28.14;56.33;97853.88;4994204;28;20175;-63
2022/07/27 06:23:21;;;;;;;29.35;20.60;;;;;;;28.24;55.73;97851.47;4993990;28;20270;-63
2022/07/27 06:25:46;;;;;;;20.30;14.82;;;;;;;28.28;55.80;97847.31;4993057;28;20737;-63
2022/07/27 06:28:12;;;;;;;20.70;15.52;;;;;;;28.32;55.80;97853.78;4994269;28;20167;-63
2022/07/27 06:30:37;;;;;;;20.73;15.57;;;;;;;28.37;56.31;97860.06;4992929;28;20555;-64
2022/07/27 06:33:03;;;;;;;19.90;16.77;;;;;;;28.33;56.79;97853.56;4993962;28;20286;-63
2022/07/27 06:35:29;;;;;;;17.77;14.95;;;;;;;28.40;57.15;97864.91;4994024;28;20258;-63
2022/07/27 06:37:55;;;;;;;20.33;14.85;;;;;;;28.51;57.15;97861.47;4994272;28;20258;-63
2022/07/27 06:40:20;;;;;;;20.23;15.52;;;;;;;28.61;56.25;97863.53;4994001;28;20212;-63
2022/07/27 06:42:46;;;;;;;21.67;14.50;;;;;;;28.63;56.19;97859.59;4992602;28;20202;-63
2022/07/27 06:45:11;;;;;;;20.20;14.90;;;;;;;28.70;57.01;97857.66;4993951;28;20555;-63
2022/07/27 06:47:39;;;;;;;18.20;14.52;;;;;;;28.76;56.52;97858.56;4993812;28;20179;-63
2022/07/27 06:50:05;;;;;;;16.67;14.88;;;;;;;28.84;56.17;97861.69;4993632;28;20198;-63
2022/07/27 06:52:30;;;;;;;16.75;13.63;;;;;;;28.97;55.96;97856.13;4993669;28;20618;-63
2022/07/27 06:54:56;;;;;;;15.27;13.80;;;;;;;29.06;55.62;97865.41;4993664;28;20167;-63
2022/07/27 06:57:21;;;;;;;17.27;14.52;;;;;;;29.11;55.73;97856.69;4993817;28;20245;-63
2022/07/27 06:59:49;;;;;;;17.77;14.00;;;;;;;29.12;55.78;97845.78;4993618;28;20533;-63
2022/07/27 07:02:16;;;;;;;16.10;13.38;;;;;;;29.14;55.84;97838.38;4993435;28;20175;-62
2022/07/27 07:04:42;;;;;;;18.80;12.50;;;;;;;29.17;55.70;97840.56;4993486;28;20182;-63
2022/07/27 07:07:07;;;;;;;14.55;12.90;;;;;;;29.19;55.66;97841.13;4993433;28;20175;-63
2022/07/27 07:09:33;;;;;;;15.23;12.98;;;;;;;29.24;55.30;97843.91;4993412;28;20199;-63
2022/07/27 07:11:59;;;;;;;15.50;12.60;;;;;;;29.26;55.35;97836.47;4993268;28;20179;-64
2022/07/27 07:14:25;;;;;;;15.38;12.50;;;;;;;29.28;55.28;97839.72;4993353;28;20179;-64
2022/07/27 07:16:52;;;;;;;15.35;12.80;;;;;;;29.33;55.60;97826.47;4993424;28;20182;-63
2022/07/27 07:19:17;;;;;;;15.02;12.45;;;;;;;29.40;55.26;97827.16;4993301;28;20175;-64
2022/07/27 07:21:43;;;;;;;17.10;12.32;;;;;;;29.49;55.13;97825.72;4991969;28;20712;-64
2022/07/27 07:24:08;;;;;;;14.38;12.18;;;;;;;29.58;54.64;97824.34;4993285;28;20200;-64
2022/07/27 07:26:35;;;;;;;18.40;13.55;;;;;;;29.63;54.61;97821.78;4993252;28;20171;-63
2022/07/27 07:29:00;;;;;;;16.80;13.32;;;;;;;29.65;54.53;97822.31;4993109;28;20202;-64
2022/07/27 07:31:26;;;;;;;18.33;14.43;;;;;;;29.69;55.20;97822.66;4992986;28;20238;-61
2022/07/27 07:33:51;;;;;;;17.48;13.07;;;;;;;29.63;54.48;97832.44;4993228;28;20332;-65
2022/07/27 07:36:17;;;;;;;20.70;14.00;;;;;;;29.69;54.01;97820.81;4992589;28;20179;-64
2022/07/27 07:38:43;;;;;;;15.77;13.25;;;;;;;29.72;54.26;97824.81;4992990;28;20172;-62
2022/07/27 07:41:09;;;;;;;15.15;12.95;;;;;;;29.76;54.56;97828.63;4992943;28;20178;-62
2022/07/27 07:43:35;;;;;;;14.90;12.38;;;;;;;29.85;53.89;97824.53;4992824;28;20631;-63
2022/07/27 07:46:01;;;;;;;17.50;11.80;;;;;;;29.87;53.84;97828.59;4993150;28;20202;-63
2022/07/27 07:48:27;;;;;;;13.65;12.20;;;;;;;29.97;53.61;97827.94;4992832;28;20261;-63
2022/07/27 07:50:52;;;;;;;13.13;11.82;;;;;;;29.99;53.75;97820.50;4992792;28;20664;-63
2022/07/27 07:53:22;;;;;;;14.00;12.68;;;;;;;30.03;53.34;97826.97;4992919;28;20195;-62
2022/07/27 07:55:47;;;;;;;13.98;11.75;;;;;;;30.10;53.67;97830.31;4993034;28;20179;-62
2022/07/27 07:58:13;;;;;;;13.27;11.73;;;;;;;30.11;52.27;97815.94;4992731;28;20175;-63
2022/07/27 08:00:38;;;;;;;16.98;12.60;;;;;;;30.13;52.02;97817.31;4992635;28;20175;-63
2022/07/27 08:03:03;;;;;;;14.75;11.73;;;;;;;30.20;52.53;97823.28;4991348;28;20198;-62
2022/07/27 08:05:31;;;;;;;18.45;12.38;;;;;;;30.28;51.94;97824.75;4992688;28;20687;-63
2022/07/27 08:07:57;;;;;;;12.68;11.32;;;;;;;30.28;51.90;97825.56;4991360;28;20179;-62
2022/07/27 08:10:22;;;;;;;16.27;12.57;;;;;;;30.36;51.79;97827.81;4992580;28;20169;-62
2022/07/27 08:12:52;;;;;;;13.25;11.85;;;;;;;30.40;51.54;97831.63;4992772;28;20598;-62
2022/07/27 08:15:18;;;;;;;13.00;11.70;;;;;;;30.42;51.43;97832.19;4992838;28;20258;-63
2022/07/27 08:17:44;;;;;;;12.60;11.35;;;;;;;30.43;51.23;97825.78;4992555;28;20233;-63
2022/07/27 08:20:11;;;;;;;14.13;11.93;;;;;;;30.48;50.96;97825.84;4992540;28;20175;-62
2022/07/27 08:22:36;;;;;;;13.98;12.45;;;;;;;30.47;51.18;97818.91;4992679;28;20214;-63
2022/07/27 08:25:03;;;;;;;14.07;11.25;;;;;;;30.36;51.26;97819.78;4992707;28;20171;-63
2022/07/27 08:27:28;;;;;;;14.57;11.50;;;;;;;30.41;51.16;97822.56;4992731;28;20213;-63
2022/07/27 08:29:53;;;;;;;14.10;12.13;;;;;;;30.53;51.00;97822.44;4992446;28;20163;-63
2022/07/27 08:32:20;;;;;;;14.43;11.57;;;;;;;30.64;50.77;97822.38;4992530;28;20338;-63
2022/07/27 08:34:45;;;;;;;15.65;12.27;;;;;;;30.72;50.62;97827.28;4992367;28;20180;-63
2022/07/27 08:37:11;;;;;;;13.25;11.88;;;;;;;30.72;50.44;97816.59;4991141;28;20195;-64
2022/07/27 08:39:36;;;;;;;13.52;11.43;;;;;;;30.71;49.84;97808.88;4992415;28;20175;-63
2022/07/27 08:42:03;;;;;;;13.70;11.50;;;;;;;30.77;48.92;97822.03;4991058;28;20171;-64
2022/07/27 08:44:29;;;;;;;13.05;11.75;;;;;;;30.85;49.13;97824.25;4992513;28;20207;-64
2022/07/27 08:46:56;;;;;;;12.70;11.38;;;;;;;30.97;48.62;97818.81;4993073;28;20179;-63
2022/07/27 08:49:22;;;;;;;14.00;11.57;;;;;;;31.08;48.24;97821.34;4996318;28;20191;-63
2022/07/27 08:51:49;;;;;;;16.00;11.93;;;;;;;31.20;48.35;97824.75;4995967;28;20217;-63
2022/07/27 08:54:15;;;;;;;17.63;11.13;;;;;;;31.30;47.79;97822.19;4996004;28;20175;-64
2022/07/27 08:56:40;;;;;;;13.00;11.40;;;;;;;31.32;47.61;97820.09;4996176;28;20178;-65
2022/07/27 08:59:06;;;;;;;13.60;11.13;;;;;;;31.39;47.38;97814.53;4996944;28;20175;-64
2022/07/27 09:01:34;;;;;;;14.95;11.70;;;;;;;31.43;47.35;97813.75;4995774;28;20175;-64
2022/07/27 09:03:59;;;;;;;18.85;12.00;;;;;;;31.37;47.59;97805.94;4995768;28;20223;-64
2022/07/27 09:06:46;;;;;;;16.13;11.95;;;;;;;31.47;47.19;97809.53;4995785;28;20676;-64
2022/07/27 09:09:13;;;;;;;14.32;11.68;;;;;;;31.55;46.54;97801.06;4995981;28;20259;-64
2022/07/27 09:11:39;;;;;;;12.65;11.35;;;;;;;31.60;45.93;97802.97;4995847;28;20563;-64
2022/07/27 09:14:07;;;;;;;14.35;12.60;;;;;;;31.71;45.12;97808.16;4995613;28;20183;-63
2022/07/27 09:16:33;;;;;;;12.57;11.27;;;;;;;31.68;44.98;97795.31;4994268;28;20183;-64
2022/07/27 09:19:02;;;;;;;12.63;11.43;;;;;;;31.79;45.48;97807.75;4995554;28;20663;-64
2022/07/27 09:21:28;;;;;;;17.55;11.52;;;;;;;31.84;45.27;97802.44;4995742;28;20171;-64
2022/07/27 09:24:12;;;;;;;12.00;10.80;;;;;;;31.92;44.21;97796.63;4995324;28;20202;-63
2022/07/27 09:26:39;;;;;;;11.93;10.93;;;;;;;31.98;44.05;97794.78;4995635;28;20237;-64
2022/07/27 09:29:11;;;;;;;12.73;11.55;;;;;;;32.08;43.59;97801.03;4995370;28;20175;-64
2022/07/27 09:31:48;;;;;;;12.70;11.18;;;;;;;32.18;44.16;97801.09;4995138;28;20193;-63
2022/07/27 09:34:33;;;;;;;14.07;12.07;;;;;;;32.25;43.49;97788.34;4995210;28;20186;-65
2022/07/27 09:36:59;;;;;;;13.02;11.30;;;;;;;32.37;42.50;97796.19;4995467;28;20186;-64
2022/07/27 09:39:26;;;;;;;14.75;11.98;;;;;;;32.48;42.70;97795.19;4995157;28;20171;-65
2022/07/27 09:42:01;;;;;;;13.75;12.18;;;;;;;32.47;42.54;97791.69;4995095;28;20594;-64
2022/07/27 09:44:34;;;;;;;13.65;11.48;;;;;;;32.59;42.10;97789.59;4995275;28;20317;-64
2022/07/27 09:47:00;;;;;;;15.32;11.38;;;;;;;32.68;41.71;97784.56;4995272;28;20175;-64
2022/07/27 09:49:27;;;;;;;15.02;11.73;;;;;;;32.76;41.82;97792.94;4994886;28;20186;-64
2022/07/27 09:51:53;;;;;;;13.10;10.93;;;;;;;32.87;41.34;97799.97;4994924;28;20229;-64
2022/07/27 09:54:19;;;;;;;17.48;10.88;;;;;;;32.98;40.81;97790.13;4994877;28;20176;-64
2022/07/27 09:56:44;;;;;;;13.43;11.00;;;;;;;33.06;39.43;97784.25;4995279;28;20202;-64
2022/07/27 09:59:16;;;;;;;16.70;11.63;;;;;;;33.15;39.79;97785.34;4994410;28;20179;-63
2022/07/27 10:01:42;;;;;;;12.10;10.82;;;;;;;33.20;40.35;97783.50;4994763;28;20175;-64
2022/07/27 10:04:09;;;;;;;16.48;11.63;;;;;;;33.28;39.69;97777.63;4993379;28;20194;-64
2022/07/27 10:06:34;;;;;;;15.57;10.65;;;;;;;33.37;39.39;97772.56;4994924;28;20234;-64
2022/07/27 10:09:01;;;;;;;12.32;10.90;;;;;;;33.50;38.76;97785.44;4994604;28;20185;-64
2022/07/27 10:11:27;;;;;;;12.02;10.82;;;;;;;33.59;38.04;97783.88;4994624;28;20191;-64
2022/07/27 10:13:54;;;;;;;10.95;9.95;;;;;;;33.65;37.94;97775.56;4994788;28;20185;-64
2022/07/27 10:16:25;;;;;;;11.18;9.88;;;;;;;33.70;38.06;97780.91;4994499;28;20191;-64
2022/07/27 10:19:05;;;;;;;14.35;10.32;;;;;;;33.80;37.09;97780.19;4994571;28;20755;-64
2022/07/27 10:21:37;;;;;;;14.45;10.98;;;;;;;33.93;36.39;97780.44;4994520;28;20171;-64
2022/07/27 10:24:21;;;;;;;10.90;9.90;;;;;;;33.90;36.02;97780.97;4994476;28;20191;-64
2022/07/27 10:26:47;;;;;;;11.95;9.88;;;;;;;33.97;36.00;97768.09;4994450;28;20167;-64
2022/07/27 10:29:12;;;;;;;10.35;9.25;;;;;;;34.21;34.69;97784.47;4994284;28;20565;-64
2022/07/27 10:31:59;;;;;;;9.93;8.77;;;;;;;34.36;34.53;97773.72;4994130;28;20179;-63
2022/07/27 10:34:40;;;;;;;11.15;9.63;;;;;;;34.56;33.71;97782.53;4994376;28;20199;-64
2022/07/27 10:37:09;;;;;;;12.60;9.23;;;;;;;34.61;33.40;97779.84;4994358;28;20167;-64
2022/07/27 10:39:38;;;;;;;10.57;8.90;;;;;;;34.74;32.93;97773.88;4994042;28;20209;-64
2022/07/27 10:42:24;;;;;;;13.13;9.38;;;;;;;34.85;34.09;97769.31;4994558;28;20209;-64
2022/07/27 10:44:57;;;;;;;9.82;8.93;;;;;;;34.98;31.85;97772.19;4994235;28;20178;-64
2022/07/27 10:47:32;;;;;;;9.48;8.68;;;;;;;35.10;33.08;97771.88;4993975;28;20221;-64
2022/07/27 10:50:15;;;;;;;10.93;9.40;;;;;;;35.31;32.66;97774.22;4994046;28;20237;-63
2022/07/27 10:52:53;;;;;;;10.60;9.10;;;;;;;35.55;30.91;97774.34;4993820;28;20167;-64
2022/07/27 10:55:28;;;;;;;10.07;9.10;;;;;;;35.71;31.76;97779.38;4992493;28;20171;-64
2022/07/27 10:58:01;;;;;;;12.55;8.85;;;;;;;35.96;30.76;97775.69;4993809;28;20194;-64
2022/07/27 11:00:48;;;;;;;9.48;8.57;;;;;;;36.16;30.58;97776.31;4993656;28;20175;-64
2022/07/27 11:03:31;;;;;;;9.90;9.00;;;;;;;36.40;30.78;97774.50;4993497;28;20684;-63
2022/07/27 11:06:01;;;;;;;11.25;9.23;;;;;;;36.59;29.62;97775.38;4993624;28;20159;-63
2022/07/27 11:08:31;;;;;;;11.20;9.70;;;;;;;36.79;29.02;97775.19;4993652;28;20170;-63
2022/07/27 11:10:58;;;;;;;11.02;9.70;;;;;;;36.64;28.72;97775.34;4992760;28;20175;-64
2022/07/27 11:13:27;;;;;;;9.32;8.48;;;;;;;36.88;28.53;97773.44;4993350;28;20175;-64
2022/07/27 11:16:00;;;;;;;12.00;8.02;;;;;;;37.11;27.34;97772.66;4992123;28;20562;-63
2022/07/27 11:18:25;;;;;;;8.43;7.65;;;;;;;37.31;26.79;97769.69;4993533;28;20190;-64
2022/07/27 11:20:51;;;;;;;9.23;8.18;;;;;;;37.34;26.34;97774.50;4993537;28;20187;-63
2022/07/27 11:23:18;;;;;;;8.02;7.28;;;;;;;37.40;26.68;97761.72;4993144;28;20638;-64
2022/07/27 11:26:00;;;;;;;8.80;7.88;;;;;;;37.52;24.88;97770.19;4993462;28;20178;-64